Sheridan, WY

3:55 AM MDT on May 03, 2015 (GMT -0600)
North Airport Area | | Change Station
CLOSE
Current Station
Personal Weather Station
Location: Sheridan, WY
Elevation: 3917 ft
Nearby Weather Stations

Elev 3917 ft 44.78 °N, 106.97 °W | Updated 5 minutes ago

Mostly Cloudy
Mostly Cloudy
51.4 °F
Feels Like 51.4 °F
N
5.3
Wind Variable Wind from WNW

Today
High -- | Low -- °F
--% Chance of Precip.
Yesterday
High -- | Low -- °F
Precip. -- in
5:55 AM 8:15 PM
Waxing Gibbous, 99% visible
Pressure 29.84 in
Visibility 10.0 miles
Clouds Mostly Cloudy 11000 ft
Dew Point 39 °F
Humidity 62%
Rainfall 0.00 in
Snow Depth Not available.
UV 0 out of 12
Pollen 9.80 out of 12
Air Quality Not available.
Flu Activity Sporadic
METAR KSHR 030853Z AUTO 30012KT 10SM BKN110 12/01 A2991 RMK AO2 SLP103 T01170011 51020

More Conditions Fewer Conditions

Pressure 29.84 in
Visibility 10.0 miles
Clouds Mostly Cloudy 11000 ft
Dew Point 39 °F
Humidity 62%
Rainfall 0.00 in
Snow Depth Not available.
UV 0 out of 12
Pollen 9.80 out of 12
Air Quality Not available.
Flu Activity Sporadic
METAR KSHR 030853Z AUTO 30012KT 10SM BKN110 12/01 A2991 RMK AO2 SLP103 T01170011 51020

More Conditions Fewer Conditions

Nepal has a long way to go to dig out and rebuild from a devastating earthquake. We have teamed up with several charities and organizations to make contributing to the relief effort as easy as possible.
How you can help: Portlight Strategies | Red Cross

10-Day Weather Forecast

Almanac

Astronomy

May. 03, 2015 Rise Set
Actual Time
Civil Twilight
Nautical Twilight
Astronomical Twilight
Moon
Length of Visible Light
Length of Day
Tomorrow will be .
, % of the Moon is Illuminated

Today's Extremes

State Highs State Lows

Community

WunderPhotos

Upload Photos

1,818,185 photos uploaded!

WunderBlogs® & News

Nearby

Air Quality

  Air Quality AQ Index Pollutant
Not available.

Snow Depth

Station Depth Elevation

Earthquake Activity

City Distance Mag. Time & Date
Minimum magnitude displayed is 2.5.

Coastal Water Temperatures

Place Temperature

Stations

Nearby Weather Stations

Station Location Temp. Windchill Dew Point Humidity Wind Precip. Elev Updated Type